Time;durP1;ratioP1;P1;durP2;ratioP2;P2;SDS_P1;SDS_P2;PMS_P1;PMS_P2;Temp;Humidity;BMP_temperature;BMP_pressure;BME280_temperature;BME280_humidity;BME280_pressure;Samples;Min_cycle;Max_cycle;Signal;HPM_P1;HPM_P2
2023/07/18 00:01:47;;;;;;;8.75;2.55;;;15.40;99.90;;;;;;4200390;28;20182;-83
2023/07/18 00:03:47;;;;;;;14.07;2.58;;;15.30;99.90;;;;;;4215726;28;20040;-84
2023/07/18 00:05:48;;;;;;;8.55;2.70;;;15.30;99.90;;;;;;4181022;28;20124;-84
2023/07/18 00:07:49;;;;;;;14.27;2.92;;;15.30;99.90;;;;;;4202974;28;20052;-83
2023/07/18 00:09:50;;;;;;;8.57;2.67;;;15.30;99.90;;;;;;4199881;28;20040;-84
2023/07/18 00:11:51;;;;;;;7.82;2.38;;;15.30;99.90;;;;;;4200483;28;20401;-84
2023/07/18 00:13:52;;;;;;;10.73;2.63;;;15.30;99.90;;;;;;4214595;28;20043;-84
2023/07/18 00:15:52;;;;;;;11.18;2.28;;;15.20;99.90;;;;;;4199986;28;20044;-83
2023/07/18 00:17:53;;;;;;;7.03;2.30;;;15.20;99.90;;;;;;4200183;28;20052;-85
2023/07/18 00:19:54;;;;;;;12.70;2.63;;;15.20;99.90;;;;;;4199216;28;20041;-84
2023/07/18 00:21:55;;;;;;;9.63;3.55;;;15.20;99.90;;;;;;4199692;28;20047;-84
2023/07/18 00:23:55;;;;;;;12.80;3.22;;;15.10;99.90;;;;;;4199114;28;20054;-84
2023/07/18 00:25:56;;;;;;;7.90;2.72;;;15.10;99.90;;;;;;4197937;28;20068;-84
2023/07/18 00:27:57;;;;;;;8.90;2.88;;;15.10;99.90;;;;;;4212517;28;20036;-83
2023/07/18 00:29:59;;;;;;;9.48;3.20;;;15.10;99.90;;;;;;4216323;28;20063;-84
2023/07/18 00:31:59;;;;;;;8.90;3.28;;;15.10;99.90;;;;;;4215914;28;20056;-83
2023/07/18 00:34:00;;;;;;;7.28;2.60;;;15.10;99.90;;;;;;4215998;28;20480;-83
2023/07/18 00:36:02;;;;;;;35.00;3.67;;;15.10;99.90;;;;;;4215284;28;20047;-84
2023/07/18 00:38:02;;;;;;;10.05;2.72;;;15.00;99.90;;;;;;4215488;28;20039;-84
2023/07/18 00:40:10;;;;;;;10.20;2.60;;;15.00;99.90;;;;;;4216147;28;20072;-84
2023/07/18 00:42:10;;;;;;;9.77;2.55;;;15.00;99.90;;;;;;4215828;28;20044;-83
2023/07/18 00:44:11;;;;;;;10.63;2.70;;;15.00;99.90;;;;;;4209043;28;20084;-84
2023/07/18 00:46:14;;;;;;;14.43;2.97;;;15.00;99.90;;;;;;4214954;28;20051;-84
2023/07/18 00:48:16;;;;;;;7.85;2.90;;;15.00;99.90;;;;;;4214488;28;20080;-84
2023/07/18 00:50:18;;;;;;;10.70;3.08;;;14.90;99.90;;;;;;4230838;28;20043;-84
2023/07/18 00:52:19;;;;;;;7.38;2.63;;;15.00;99.90;;;;;;4230260;28;20085;-83
2023/07/18 00:54:20;;;;;;;11.32;3.22;;;14.90;99.90;;;;;;4213913;28;20048;-83
2023/07/18 00:56:22;;;;;;;10.90;3.05;;;14.90;99.90;;;;;;4214165;28;20079;-83
2023/07/18 00:58:23;;;;;;;14.75;2.50;;;14.90;99.90;;;;;;4215141;28;20048;-83
2023/07/18 01:00:24;;;;;;;11.70;2.58;;;14.90;99.90;;;;;;4214953;28;20143;-83
2023/07/18 01:02:25;;;;;;;11.93;3.25;;;14.90;99.90;;;;;;4210227;28;20051;-82
2023/07/18 01:04:25;;;;;;;9.63;2.55;;;14.80;99.90;;;;;;4214294;28;20040;-83
2023/07/18 01:06:26;;;;;;;13.65;3.88;;;14.80;99.90;;;;;;4214737;28;20048;-83
2023/07/18 01:08:27;;;;;;;14.88;3.00;;;14.80;99.90;;;;;;4216001;28;20040;-83
2023/07/18 01:10:28;;;;;;;13.27;2.95;;;14.80;99.90;;;;;;4231018;28;20131;-83
2023/07/18 01:12:28;;;;;;;11.27;2.50;;;14.80;99.90;;;;;;4214881;28;20625;-83
2023/07/18 01:14:30;;;;;;;9.18;2.30;;;14.80;99.90;;;;;;4215095;28;20083;-83
2023/07/18 01:16:31;;;;;;;15.27;2.80;;;14.80;99.90;;;;;;4216836;28;20048;-83
2023/07/18 01:18:31;;;;;;;11.35;3.10;;;14.80;99.90;;;;;;4214341;28;20123;-83
2023/07/18 01:20:33;;;;;;;12.05;2.65;;;14.80;99.90;;;;;;4211231;28;20035;-83
2023/07/18 01:22:35;;;;;;;14.02;2.75;;;14.70;99.90;;;;;;4214976;28;20051;-82
2023/07/18 01:24:35;;;;;;;16.27;2.97;;;14.70;99.90;;;;;;4216355;28;20048;-83
2023/07/18 01:26:36;;;;;;;13.25;2.78;;;14.70;99.90;;;;;;4216415;28;20736;-83
2023/07/18 01:28:39;;;;;;;13.32;3.20;;;14.70;99.90;;;;;;4217989;28;20048;-83
2023/07/18 01:30:41;;;;;;;12.27;2.95;;;14.70;99.90;;;;;;4218099;28;20044;-83
2023/07/18 01:32:48;;;;;;;14.60;3.40;;;14.70;99.90;;;;;;4214595;28;20086;-83
2023/07/18 01:34:49;;;;;;;13.20;3.33;;;14.70;99.90;;;;;;4215153;28;20052;-83
2023/07/18 01:36:50;;;;;;;10.05;2.60;;;14.60;99.90;;;;;;4214670;28;20055;-83
2023/07/18 01:38:51;;;;;;;15.30;3.63;;;14.60;99.90;;;;;;4215995;28;20048;-83
2023/07/18 01:40:51;;;;;;;8.98;3.08;;;14.60;99.90;;;;;;4215128;28;20048;-82
2023/07/18 01:42:54;;;;;;;13.77;3.15;;;14.60;99.90;;;;;;4215778;28;20043;-83
2023/07/18 01:44:56;;;;;;;10.10;2.72;;;14.60;99.90;;;;;;4216747;28;20044;-83
2023/07/18 01:46:57;;;;;;;9.48;3.42;;;14.60;99.90;;;;;;4218193;28;20071;-83
2023/07/18 01:48:58;;;;;;;12.80;3.13;;;14.60;99.90;;;;;;4220501;28;20373;-83
2023/07/18 01:50:59;;;;;;;11.65;2.80;;;14.60;99.90;;;;;;4219803;28;20051;-82
2023/07/18 01:53:00;;;;;;;12.27;3.33;;;14.50;99.90;;;;;;4219022;28;20051;-82
2023/07/18 01:55:03;;;;;;;10.02;2.63;;;14.50;99.90;;;;;;4208444;28;20051;-83
2023/07/18 01:57:05;;;;;;;19.58;3.80;;;14.50;99.90;;;;;;4236292;28;20059;-82
2023/07/18 01:59:05;;;;;;;14.38;3.20;;;14.50;99.90;;;;;;4236799;28;20043;-82
2023/07/18 02:01:06;;;;;;;11.88;3.13;;;14.50;99.90;;;;;;4234251;28;20054;-83
2023/07/18 02:03:07;;;;;;;18.02;3.70;;;14.40;99.90;;;;;;4237305;28;20039;-83
2023/07/18 02:05:08;;;;;;;10.05;2.75;;;14.50;99.90;;;;;;4234094;28;20123;-83
2023/07/18 02:07:09;;;;;;;14.77;3.25;;;14.40;99.90;;;;;;4234612;28;20036;-83
2023/07/18 02:09:11;;;;;;;16.30;4.75;;;14.40;99.90;;;;;;4234093;28;20039;-83
2023/07/18 02:11:12;;;;;;;11.75;3.78;;;14.40;99.90;;;;;;4233124;28;20047;-83
2023/07/18 02:13:12;;;;;;;11.60;3.45;;;14.40;99.90;;;;;;4211691;28;20467;-83
2023/07/18 02:15:13;;;;;;;15.20;3.13;;;14.40;99.90;;;;;;4217331;28;20051;-83
2023/07/18 02:17:14;;;;;;;12.00;3.08;;;14.40;99.90;;;;;;4217512;28;20039;-83
2023/07/18 02:19:15;;;;;;;14.93;3.20;;;14.40;99.90;;;;;;4232743;28;20047;-83
2023/07/18 02:21:15;;;;;;;11.55;3.90;;;14.40;99.90;;;;;;4216814;28;20046;-83
2023/07/18 02:23:16;;;;;;;14.25;3.20;;;14.40;99.90;;;;;;4216835;28;20044;-83
2023/07/18 02:25:17;;;;;;;15.93;3.63;;;14.40;99.90;;;;;;4217184;28;20595;-83
2023/07/18 02:27:19;;;;;;;10.85;3.30;;;14.70;99.90;;;;;;4215759;28;20040;-83
2023/07/18 02:29:20;;;;;;;13.50;3.78;;;14.30;99.90;;;;;;4209668;28;20040;-82
2023/07/18 02:31:21;;;;;;;6.65;3.50;;;14.30;99.90;;;;;;4215926;28;20095;-83
2023/07/18 02:33:22;;;;;;;17.52;4.75;;;14.30;99.90;;;;;;4216468;28;20126;-83
2023/07/18 02:35:23;;;;;;;18.50;4.15;;;14.30;99.90;;;;;;4217049;28;20146;-83
2023/07/18 02:37:25;;;;;;;9.18;3.13;;;14.30;99.90;;;;;;4216728;28;20048;-83
2023/07/18 02:39:26;;;;;;;14.80;5.05;;;14.30;99.90;;;;;;4217586;28;20044;-83
2023/07/18 02:41:27;;;;;;;16.63;4.25;;;14.30;99.90;;;;;;4218197;28;20470;-83
2023/07/18 02:43:27;;;;;;;10.38;3.53;;;14.30;99.90;;;;;;4218588;28;20095;-83
2023/07/18 02:45:28;;;;;;;16.35;3.88;;;14.30;99.90;;;;;;4228012;28;20047;-83
2023/07/18 02:47:29;;;;;;;20.45;3.65;;;14.30;99.90;;;;;;4217999;28;20044;-83
2023/07/18 02:49:31;;;;;;;14.77;4.50;;;14.30;99.90;;;;;;4217861;28;20051;-83
2023/07/18 02:51:31;;;;;;;12.85;3.22;;;14.40;99.90;;;;;;4217613;28;20044;-83
2023/07/18 02:53:32;;;;;;;14.38;3.75;;;14.30;99.90;;;;;;4217329;28;20072;-83
2023/07/18 02:55:33;;;;;;;19.55;3.50;;;14.30;99.90;;;;;;4216724;28;20044;-83
2023/07/18 02:57:34;;;;;;;13.98;3.25;;;14.30;99.90;;;;;;4217167;28;20047;-83
2023/07/18 02:59:35;;;;;;;8.52;3.08;;;14.30;99.90;;;;;;4215570;28;20075;-83
2023/07/18 03:01:36;;;;;;;17.65;3.42;;;14.30;99.90;;;;;;4217326;28;20097;-83
2023/07/18 03:06:27;;;;;;;16.73;4.25;;;14.30;99.90;;;;;;4560105;23;22011;-78
2023/07/18 03:08:29;;;;;;;15.90;3.20;;;14.30;99.90;;;;;;4132766;28;20053;-78
2023/07/18 03:10:30;;;;;;;13.13;2.97;;;14.30;99.90;;;;;;4132788;28;20426;-78
2023/07/18 03:12:30;;;;;;;17.70;5.63;;;14.30;99.90;;;;;;4133040;28;20046;-78
2023/07/18 03:14:31;;;;;;;17.33;4.72;;;14.60;99.90;;;;;;4133241;28;20396;-78
2023/07/18 03:16:32;;;;;;;12.45;3.22;;;14.30;99.90;;;;;;4098906;29;20101;-78
2023/07/18 03:18:33;;;;;;;16.55;3.45;;;14.20;99.90;;;;;;4115586;28;20047;-78
2023/07/18 03:20:34;;;;;;;13.27;3.33;;;14.30;99.90;;;;;;4133057;28;20050;-78
2023/07/18 03:22:34;;;;;;;11.13;3.50;;;14.30;99.90;;;;;;4133947;28;20038;-78
2023/07/18 03:24:35;;;;;;;13.93;3.65;;;14.30;99.90;;;;;;4115731;28;20121;-78
2023/07/18 03:26:36;;;;;;;15.95;4.35;;;14.30;99.90;;;;;;4132664;28;20130;-78
2023/07/18 03:28:37;;;;;;;12.80;3.35;;;14.10;99.90;;;;;;4132956;28;20038;-78
2023/07/18 03:30:40;;;;;;;12.88;3.47;;;14.10;99.90;;;;;;4132085;28;20180;-79
2023/07/18 03:32:40;;;;;;;15.95;3.83;;;14.20;99.90;;;;;;4115464;28;20541;-78
2023/07/18 03:34:41;;;;;;;10.90;3.55;;;14.10;99.90;;;;;;4132771;28;20050;-78
2023/07/18 03:36:42;;;;;;;20.95;4.80;;;14.10;99.90;;;;;;4115283;28;20080;-78
2023/07/18 03:38:43;;;;;;;15.63;3.83;;;14.10;99.90;;;;;;4133357;28;20084;-79
2023/07/18 03:40:43;;;;;;;16.92;3.92;;;14.10;99.90;;;;;;4115483;28;20055;-78
2023/07/18 03:42:45;;;;;;;15.35;3.63;;;14.10;99.90;;;;;;4132470;28;20065;-78
2023/07/18 03:44:45;;;;;;;18.50;3.22;;;14.10;99.90;;;;;;4132836;28;20046;-78
2023/07/18 03:46:46;;;;;;;13.82;4.00;;;14.00;99.90;;;;;;4132561;28;20046;-78
2023/07/18 03:48:47;;;;;;;9.63;3.45;;;14.10;99.90;;;;;;4115348;28;20054;-78
2023/07/18 03:50:47;;;;;;;14.38;3.80;;;14.10;99.90;;;;;;4132557;28;20058;-78
2023/07/18 03:52:48;;;;;;;17.30;3.75;;;14.10;99.90;;;;;;4132309;28;20052;-78
2023/07/18 03:54:49;;;;;;;10.75;3.30;;;14.10;99.90;;;;;;4114816;28;20125;-78
2023/07/18 03:56:50;;;;;;;21.40;4.47;;;14.10;99.90;;;;;;4115147;28;20055;-78
2023/07/18 03:58:51;;;;;;;12.80;3.67;;;14.30;99.90;;;;;;4132560;28;20057;-78
2023/07/18 04:00:52;;;;;;;13.68;3.65;;;14.30;99.90;;;;;;4132343;28;20050;-78
2023/07/18 04:02:54;;;;;;;10.85;3.58;;;14.10;99.90;;;;;;4115283;28;20053;-78
2023/07/18 04:04:54;;;;;;;11.55;4.47;;;14.10;99.90;;;;;;4115002;28;20094;-78
2023/07/18 04:06:55;;;;;;;16.30;3.80;;;14.10;99.90;;;;;;4114485;28;20058;-78
2023/07/18 04:08:56;;;;;;;12.05;3.63;;;14.10;99.90;;;;;;4132233;28;20517;-78
2023/07/18 04:11:00;;;;;;;18.15;4.20;;;14.10;99.90;;;;;;4131750;28;20049;-79
2023/07/18 04:13:00;;;;;;;14.13;3.20;;;14.10;99.90;;;;;;4132555;28;20073;-78
2023/07/18 04:15:01;;;;;;;13.75;3.83;;;14.20;99.90;;;;;;4132669;28;20046;-79
2023/07/18 04:17:02;;;;;;;15.43;4.05;;;14.10;99.90;;;;;;4132168;28;20493;-79
2023/07/18 04:19:03;;;;;;;15.20;4.15;;;14.10;99.90;;;;;;4132229;28;20046;-79
2023/07/18 04:21:04;;;;;;;18.80;4.32;;;14.10;99.90;;;;;;4132110;28;20050;-78
2023/07/18 04:23:05;;;;;;;13.90;3.53;;;14.20;99.90;;;;;;4115213;28;20039;-78
2023/07/18 04:25:06;;;;;;;12.65;3.50;;;14.10;99.90;;;;;;4114323;28;20057;-78
2023/07/18 04:27:07;;;;;;;12.00;3.50;;;14.20;99.90;;;;;;4132328;28;20042;-78
2023/07/18 04:29:07;;;;;;;16.15;4.03;;;14.40;99.90;;;;;;4132411;28;20121;-78
2023/07/18 04:31:08;;;;;;;11.55;3.35;;;14.40;99.90;;;;;;4132274;28;20078;-76
2023/07/18 04:33:12;;;;;;;11.65;3.42;;;14.20;99.90;;;;;;4135284;28;20041;-75
2023/07/18 04:35:13;;;;;;;18.50;3.40;;;14.30;99.90;;;;;;4131294;28;20043;-75
2023/07/18 04:37:13;;;;;;;13.15;3.05;;;14.50;99.90;;;;;;4131702;28;20617;-75
2023/07/18 04:39:14;;;;;;;11.18;3.38;;;14.60;99.90;;;;;;4131809;28;20038;-76
2023/07/18 04:41:15;;;;;;;10.32;3.13;;;14.60;99.90;;;;;;4131659;28;20169;-76
2023/07/18 04:43:15;;;;;;;13.50;3.65;;;14.50;99.90;;;;;;4131882;28;20046;-76
2023/07/18 04:45:22;;;;;;;12.60;3.40;;;14.40;99.90;;;;;;4131792;28;20046;-76
2023/07/18 04:47:23;;;;;;;12.98;3.83;;;14.50;99.90;;;;;;4130674;28;20118;-76
2023/07/18 04:49:24;;;;;;;15.48;4.15;;;14.50;99.90;;;;;;4131905;28;20057;-76
2023/07/18 04:51:25;;;;;;;16.27;3.20;;;14.50;99.90;;;;;;4131080;28;20042;-76
2023/07/18 04:53:27;;;;;;;11.93;3.22;;;14.50;99.90;;;;;;4132080;28;20781;-76
2023/07/18 04:55:28;;;;;;;12.95;3.10;;;14.60;99.90;;;;;;4131086;28;20046;-76
2023/07/18 04:57:29;;;;;;;19.80;3.90;;;14.60;99.90;;;;;;4114339;28;20455;-76
2023/07/18 04:59:30;;;;;;;10.93;2.60;;;14.80;99.90;;;;;;4131414;28;20050;-76
2023/07/18 05:01:31;;;;;;;10.30;3.30;;;14.70;99.90;;;;;;4131096;28;20054;-76
2023/07/18 05:03:31;;;;;;;17.90;3.58;;;14.70;99.90;;;;;;4114642;28;20140;-76
2023/07/18 05:05:32;;;;;;;23.80;3.85;;;14.70;99.90;;;;;;4131141;28;20134;-76
2023/07/18 05:07:33;;;;;;;17.30;3.50;;;14.80;99.90;;;;;;4131639;28;20059;-76
2023/07/18 05:09:34;;;;;;;12.52;3.15;;;14.90;99.90;;;;;;4131673;28;20465;-76
2023/07/18 05:11:34;;;;;;;18.48;3.85;;;14.90;99.90;;;;;;4113765;28;20042;-76
2023/07/18 05:13:35;;;;;;;12.05;3.53;;;14.90;99.90;;;;;;4131447;28;20046;-76
2023/07/18 05:15:36;;;;;;;18.13;4.25;;;15.10;99.90;;;;;;4131161;28;20046;-76
2023/07/18 05:17:37;;;;;;;22.48;4.45;;;15.10;99.90;;;;;;4131648;28;20089;-76
2023/07/18 05:19:38;;;;;;;20.65;4.15;;;15.10;99.90;;;;;;4132216;28;20042;-76
2023/07/18 05:21:39;;;;;;;14.35;3.28;;;15.10;99.90;;;;;;4116366;28;20478;-76
2023/07/18 05:23:40;;;;;;;10.77;3.30;;;15.20;99.90;;;;;;4119860;28;20134;-76
2023/07/18 05:25:40;;;;;;;17.60;3.15;;;15.20;99.90;;;;;;4136424;28;20053;-76
2023/07/18 05:27:41;;;;;;;13.18;4.07;;;15.30;99.90;;;;;;4136733;28;20042;-76
2023/07/18 05:29:42;;;;;;;18.83;3.50;;;15.30;99.90;;;;;;4119465;28;20043;-76
2023/07/18 05:31:46;;;;;;;13.65;2.78;;;15.40;99.90;;;;;;4136544;28;20482;-77
2023/07/18 05:33:47;;;;;;;17.65;4.88;;;15.40;99.90;;;;;;4136959;28;20044;-77
2023/07/18 05:35:48;;;;;;;18.23;3.35;;;15.50;99.90;;;;;;4136745;28;20064;-77
2023/07/18 05:37:49;;;;;;;16.38;3.90;;;15.60;99.90;;;;;;4136676;28;20045;-76
2023/07/18 05:39:50;;;;;;;14.00;3.00;;;15.60;99.90;;;;;;4137234;28;20050;-77
2023/07/18 05:41:50;;;;;;;13.85;3.78;;;15.70;99.90;;;;;;4136684;28;20047;-77
2023/07/18 05:43:51;;;;;;;24.25;5.25;;;15.70;99.90;;;;;;4135754;28;20053;-77
2023/07/18 05:45:52;;;;;;;13.85;3.22;;;15.70;99.90;;;;;;4118919;28;20081;-77
2023/07/18 05:47:53;;;;;;;17.10;4.07;;;15.80;99.90;;;;;;4136611;28;20410;-77
2023/07/18 05:49:54;;;;;;;17.55;4.57;;;15.70;99.90;;;;;;4136718;28;20042;-76
2023/07/18 05:51:54;;;;;;;14.10;3.30;;;15.70;99.90;;;;;;4136355;28;20043;-76
2023/07/18 05:53:56;;;;;;;14.63;3.85;;;15.70;99.90;;;;;;4136634;28;20038;-76
2023/07/18 05:55:57;;;;;;;14.05;3.13;;;15.70;99.90;;;;;;4135393;28;20493;-76
2023/07/18 05:57:57;;;;;;;11.10;2.95;;;15.80;99.90;;;;;;4118717;28;20057;-76
2023/07/18 05:59:58;;;;;;;13.70;3.92;;;15.80;99.90;;;;;;4136685;28;20470;-77
2023/07/18 06:01:59;;;;;;;12.85;3.60;;;15.80;99.90;;;;;;4136423;28;20505;-77
2023/07/18 06:04:00;;;;;;;11.57;3.10;;;15.80;99.90;;;;;;4136845;28;20053;-78
2023/07/18 06:06:01;;;;;;;15.38;4.60;;;15.80;99.90;;;;;;4136353;28;20057;-78
2023/07/18 06:08:03;;;;;;;21.67;4.78;;;15.90;99.90;;;;;;4146275;28;20057;-77
2023/07/18 06:10:04;;;;;;;15.90;4.65;;;15.90;99.90;;;;;;4152656;28;20401;-77
2023/07/18 06:12:06;;;;;;;13.23;4.22;;;15.90;99.90;;;;;;4152283;28;20061;-78
2023/07/18 06:14:07;;;;;;;16.30;3.40;;;16.00;99.90;;;;;;4153069;28;20081;-77
2023/07/18 06:16:08;;;;;;;16.83;3.70;;;16.00;99.90;;;;;;4153255;28;20069;-77
2023/07/18 06:18:08;;;;;;;15.55;3.55;;;16.10;99.90;;;;;;4152976;28;20045;-77
2023/07/18 06:20:13;;;;;;;15.25;3.50;;;16.00;99.90;;;;;;4152522;28;20107;-77
2023/07/18 06:22:14;;;;;;;18.83;4.40;;;16.00;99.90;;;;;;4135304;28;20046;-77
2023/07/18 06:24:16;;;;;;;17.48;4.00;;;16.10;99.90;;;;;;4135099;28;20743;-77
2023/07/18 06:26:16;;;;;;;15.05;3.70;;;16.10;99.90;;;;;;4136553;28;20061;-77
2023/07/18 06:28:17;;;;;;;17.15;3.25;;;16.10;99.90;;;;;;4136091;28;20050;-77
2023/07/18 06:30:18;;;;;;;14.27;3.22;;;16.10;99.90;;;;;;4136392;28;20053;-77
2023/07/18 06:32:19;;;;;;;16.27;3.60;;;16.10;99.90;;;;;;4136395;28;20042;-77
2023/07/18 06:34:19;;;;;;;11.45;4.15;;;16.10;99.90;;;;;;4133965;28;20046;-77
2023/07/18 06:36:20;;;;;;;8.93;3.15;;;16.10;99.90;;;;;;4133707;28;20062;-77
2023/07/18 06:38:21;;;;;;;12.57;3.75;;;16.60;99.90;;;;;;4133776;28;20078;-77
2023/07/18 06:40:22;;;;;;;14.45;3.97;;;16.10;99.90;;;;;;4133356;28;20038;-77
2023/07/18 06:42:23;;;;;;;15.77;4.38;;;16.20;99.90;;;;;;4115812;28;20085;-78
2023/07/18 06:44:23;;;;;;;18.92;4.63;;;16.40;99.90;;;;;;4146929;28;20125;-77
2023/07/18 06:46:24;;;;;;;13.75;3.78;;;16.50;99.90;;;;;;4149592;28;20046;-78
2023/07/18 06:48:25;;;;;;;16.67;3.90;;;16.50;99.90;;;;;;4149615;28;20067;-78
2023/07/18 06:50:26;;;;;;;17.20;3.28;;;16.50;99.90;;;;;;4149292;28;20045;-78
2023/07/18 06:52:26;;;;;;;17.67;4.22;;;16.60;99.90;;;;;;4149466;28;20100;-78
2023/07/18 06:54:27;;;;;;;18.33;4.57;;;16.80;99.90;;;;;;4149544;28;20081;-78
2023/07/18 06:56:28;;;;;;;15.80;3.92;;;16.90;99.90;;;;;;4150062;28;20474;-76
2023/07/18 06:58:28;;;;;;;17.25;4.40;;;16.90;99.90;;;;;;4150610;28;20077;-76
2023/07/18 07:00:29;;;;;;;14.43;4.15;;;16.90;99.90;;;;;;4150571;28;20054;-76
2023/07/18 07:02:30;;;;;;;15.48;4.15;;;17.00;99.90;;;;;;4150750;28;20073;-76
2023/07/18 07:04:34;;;;;;;14.00;4.55;;;;;;;;;;4133556;28;20417;-76
2023/07/18 07:06:41;;;;;;;16.65;4.15;;;;;;;;;;4150399;28;20038;-76
2023/07/18 07:08:42;;;;;;;16.88;4.63;;;;;;;;;;4150524;28;20084;-76
2023/07/18 07:10:43;;;;;;;16.50;3.78;;;;;;;;;;4149263;28;20050;-76
2023/07/18 07:12:44;;;;;;;14.77;3.88;;;;;;;;;;4117350;28;20050;-76
2023/07/18 07:14:46;;;;;;;13.23;3.00;;;;;;;;;;4149793;28;20073;-76
2023/07/18 07:16:47;;;;;;;10.35;4.07;;;;;;;;;;4150055;28;20050;-76
2023/07/18 07:18:50;;;;;;;13.75;3.13;;;17.20;99.90;;;;;;4151101;28;20102;-76
2023/07/18 07:20:51;;;;;;;17.38;4.05;;;17.90;99.90;;;;;;4150815;28;20092;-76
2023/07/18 07:22:53;;;;;;;18.45;4.03;;;17.90;99.90;;;;;;4150522;28;20474;-76
2023/07/18 07:24:54;;;;;;;12.50;3.60;;;;;;;;;;4151217;28;20046;-76
2023/07/18 07:26:55;;;;;;;11.18;3.08;;;;;;;;;;4150396;28;20129;-76
2023/07/18 07:28:56;;;;;;;12.80;3.28;;;;;;;;;;4150265;28;20045;-76
2023/07/18 07:31:00;;;;;;;14.05;3.88;;;17.90;99.90;;;;;;4149525;28;20058;-76
2023/07/18 07:33:05;;;;;;;11.07;3.15;;;;;;;;;;4149563;28;20112;-76
2023/07/18 07:35:08;;;;;;;13.27;3.63;;;;;;;;;;4148990;28;20048;-76
2023/07/18 07:37:10;;;;;;;12.20;2.75;;;;;;;;;;4148374;28;20140;-76
2023/07/18 07:39:11;;;;;;;16.02;3.72;;;18.30;99.90;;;;;;4149010;28;20046;-76
2023/07/18 07:41:12;;;;;;;17.17;3.50;;;;;;;;;;4149138;28;20053;-76
2023/07/18 07:43:13;;;;;;;11.23;2.95;;;;;;;;;;4131849;28;20109;-76
2023/07/18 07:45:16;;;;;;;14.07;2.80;;;;;;;;;;4148682;28;20045;-78
2023/07/18 07:47:18;;;;;;;9.50;2.53;;;;;;;;;;4130731;28;20062;-81
2023/07/18 07:49:20;;;;;;;12.90;3.58;;;18.70;99.90;;;;;;4131690;28;20259;-80
2023/07/18 07:51:22;;;;;;;9.70;3.38;;;19.30;99.90;;;;;;4148885;28;20122;-79
2023/07/18 07:53:23;;;;;;;10.38;2.85;;;19.30;99.90;;;;;;4149578;28;20046;-80
2023/07/18 07:55:24;;;;;;;9.85;2.70;;;19.40;99.90;;;;;;4148639;28;20128;-79
2023/07/18 07:57:25;;;;;;;17.60;3.10;;;19.40;99.90;;;;;;4149028;28;20045;-80
2023/07/18 07:59:25;;;;;;;11.13;3.30;;;19.30;99.90;;;;;;4131390;28;20042;-79
2023/07/18 08:01:26;;;;;;;14.10;2.70;;;19.30;99.90;;;;;;4148720;28;20091;-79
2023/07/18 08:03:28;;;;;;;11.98;3.38;;;19.30;99.90;;;;;;4130891;28;20093;-79
2023/07/18 08:05:29;;;;;;;22.25;4.18;;;;;;;;;;4147897;28;20053;-82
2023/07/18 08:07:30;;;;;;;11.00;2.55;;;;;;;;;;4148645;28;20153;-80
2023/07/18 08:09:31;;;;;;;7.40;2.20;;;;;;;;;;4148506;28;20132;-78
2023/07/18 08:11:33;;;;;;;10.32;2.55;;;;;;;;;;4148187;28;20061;-79
2023/07/18 08:13:34;;;;;;;11.25;2.35;;;;;;;;;;4148296;28;20068;-79
2023/07/18 08:15:35;;;;;;;10.23;2.72;;;19.30;99.90;;;;;;4147907;28;20046;-79
2023/07/18 08:17:36;;;;;;;13.20;2.90;;;19.70;99.90;;;;;;4149368;28;20509;-79
2023/07/18 08:19:37;;;;;;;11.15;3.00;;;19.70;99.90;;;;;;4148971;28;20122;-79
2023/07/18 08:21:37;;;;;;;10.45;2.53;;;19.80;99.90;;;;;;4149083;28;20103;-78
2023/07/18 08:23:38;;;;;;;12.07;2.30;;;19.90;99.90;;;;;;4149506;28;20042;-80
2023/07/18 08:25:41;;;;;;;6.80;2.22;;;19.90;99.90;;;;;;4148397;28;20042;-79
2023/07/18 08:27:42;;;;;;;11.60;1.95;;;20.00;99.90;;;;;;4131826;28;20065;-80
2023/07/18 08:29:43;;;;;;;7.95;2.70;;;19.90;99.90;;;;;;4147431;28;20050;-80
2023/07/18 08:31:44;;;;;;;6.35;1.92;;;19.90;99.90;;;;;;4147927;28;20046;-80
2023/07/18 08:33:45;;;;;;;8.07;1.95;;;20.10;99.90;;;;;;4148228;28;20402;-81
2023/07/18 08:35:45;;;;;;;9.77;2.20;;;20.30;99.90;;;;;;4147693;28;20439;-80
2023/07/18 08:37:47;;;;;;;6.78;1.70;;;20.40;99.90;;;;;;4148304;28;20049;-81
2023/07/18 08:39:47;;;;;;;6.00;1.55;;;20.40;99.90;;;;;;4130737;28;20050;-80
2023/07/18 08:41:49;;;;;;;3.15;1.70;;;20.50;99.90;;;;;;4130675;28;20057;-80
2023/07/18 08:43:50;;;;;;;3.28;1.30;;;;;;;;;;4148146;28;20054;-81
2023/07/18 08:45:52;;;;;;;5.60;1.13;;;;;;;;;;4148624;28;20153;-81
2023/07/18 08:47:56;;;;;;;7.75;1.35;;;;;;;;;;4148777;28;20512;-81
2023/07/18 08:49:58;;;;;;;5.72;1.40;;;;;;;;;;4147596;28;20050;-82
2023/07/18 08:52:01;;;;;;;10.07;1.50;;;;;;;;;;4147843;28;20065;-81
2023/07/18 08:54:02;;;;;;;8.18;2.33;;;;;;;;;;4148075;28;20046;-80
2023/07/18 08:56:04;;;;;;;6.93;1.38;;;;;;;;;;4129980;28;20050;-81
2023/07/18 08:58:05;;;;;;;4.63;1.13;;;;;;;;;;4145618;28;20096;-81
2023/07/18 09:00:07;;;;;;;7.55;1.70;;;20.70;99.90;;;;;;4099767;28;20134;-81
2023/07/18 09:02:08;;;;;;;11.75;1.35;;;21.70;99.90;;;;;;4146991;28;20121;-80
2023/07/18 09:04:09;;;;;;;5.57;1.10;;;21.60;99.90;;;;;;4145176;28;20559;-80
2023/07/18 09:06:20;;;;;;;5.80;1.10;;;21.50;99.90;;;;;;4133905;28;20038;-81
2023/07/18 09:08:21;;;;;;;4.47;1.23;;;;;;;;;;4147772;28;20057;-81
2023/07/18 09:10:22;;;;;;;3.78;1.02;;;;;;;;;;4147747;28;20121;-80
2023/07/18 09:12:27;;;;;;;6.15;1.65;;;;;;;;;;4147059;28;20077;-80
2023/07/18 09:14:30;;;;;;;2.90;0.98;;;;;;;;;;4147366;28;20172;-81
2023/07/18 09:16:31;;;;;;;3.90;1.30;;;;;;;;;;4147333;28;20417;-81
2023/07/18 09:18:32;;;;;;;6.13;1.23;;;;;;;;;;4147447;28;20046;-81
2023/07/18 09:20:34;;;;;;;6.88;1.25;;;;;;;;;;4147116;28;20045;-80
2023/07/18 09:22:36;;;;;;;6.47;1.33;;;21.50;99.90;;;;;;4147819;28;20046;-80
2023/07/18 09:24:38;;;;;;;3.75;0.95;;;;;;;;;;4147900;28;20049;-80
2023/07/18 09:26:39;;;;;;;2.58;0.80;;;22.00;99.90;;;;;;4147448;28;20053;-80
2023/07/18 09:28:40;;;;;;;4.60;0.95;;;22.40;99.90;;;;;;4147891;28;20042;-80
2023/07/18 09:30:41;;;;;;;6.15;1.02;;;22.50;99.90;;;;;;4130216;28;20050;-80
2023/07/18 09:32:43;;;;;;;7.40;1.42;;;22.50;99.90;;;;;;4146968;28;20505;-80
2023/07/18 09:34:58;;;;;;;8.05;1.15;;;22.50;99.90;;;;;;4130038;28;20058;-80
2023/07/18 09:37:03;;;;;;;4.65;0.98;;;22.60;99.90;;;;;;4147304;28;20466;-81
2023/07/18 09:39:04;;;;;;;4.82;1.00;;;;;;;;;;4129987;28;20050;-80
2023/07/18 09:41:07;;;;;;;5.60;1.10;;;;;;;;;;4147855;28;20108;-80
2023/07/18 09:43:08;;;;;;;5.93;1.40;;;;;;;;;;4148685;28;20474;-81
2023/07/18 09:45:10;;;;;;;5.65;1.00;;;;;;;;;;4147361;28;20172;-81
2023/07/18 09:47:13;;;;;;;5.05;1.48;;;22.80;99.90;;;;;;4147479;28;20129;-81
2023/07/18 09:49:14;;;;;;;2.40;1.15;;;;;;;;;;4147729;28;20476;-81
2023/07/18 09:51:19;;;;;;;5.15;1.20;;;;;;;;;;4147186;28;20054;-81
2023/07/18 09:53:23;;;;;;;5.93;1.33;;;;;;;;;;4147670;28;20050;-81
2023/07/18 09:55:26;;;;;;;5.60;1.00;;;;;;;;;;4147011;28;20045;-81
2023/07/18 09:57:28;;;;;;;6.18;1.42;;;;;;;;;;4129775;28;20054;-80
2023/07/18 09:59:30;;;;;;;4.10;1.02;;;;;;;;;;4147892;28;20051;-80
2023/07/18 10:01:32;;;;;;;3.67;1.08;;;;;;;;;;4129933;28;20069;-81
2023/07/18 10:03:33;;;;;;;8.50;1.45;;;23.00;99.90;;;;;;4147247;28;20126;-80
2023/07/18 10:05:34;;;;;;;4.05;0.98;;;23.90;99.90;;;;;;4146727;28;20139;-80
2023/07/18 10:07:39;;;;;;;4.43;1.45;;;23.70;99.90;;;;;;4147678;28;20057;-80
2023/07/18 10:09:40;;;;;;;6.38;1.00;;;23.40;99.90;;;;;;4150320;28;20528;-80
2023/07/18 10:11:58;;;;;;;4.57;1.20;;;23.30;99.90;;;;;;4150296;28;20112;-80
2023/07/18 10:14:06;;;;;;;4.53;0.90;;;23.00;99.90;;;;;;4132856;28;20051;-80
2023/07/18 10:16:13;;;;;;;5.72;1.23;;;23.00;99.90;;;;;;4150400;28;20129;-80
2023/07/18 10:18:18;;;;;;;5.40;1.02;;;22.80;99.90;;;;;;4150850;28;20071;-80
2023/07/18 10:20:32;;;;;;;5.20;1.70;;;22.60;99.90;;;;;;4150111;28;20054;-80
2023/07/18 10:22:33;;;;;;;8.02;1.00;;;;;;;;;;4150195;28;20069;-80
2023/07/18 10:24:34;;;;;;;4.97;1.25;;;;;;;;;;4149926;28;20124;-81
2023/07/18 10:26:35;;;;;;;5.90;1.13;;;;;;;;;;4150024;28;20082;-80
2023/07/18 10:28:46;;;;;;;3.17;0.98;;;;;;;;;;4149702;28;20053;-80
2023/07/18 10:30:47;;;;;;;6.82;1.40;;;;;;;;;;4149674;28;20095;-80
2023/07/18 10:32:52;;;;;;;6.25;1.27;;;;;;;;;;4150383;28;20046;-80
2023/07/18 10:34:53;;;;;;;8.50;1.35;;;22.00;99.90;;;;;;4133624;28;20050;-80
2023/07/18 10:36:54;;;;;;;4.30;1.13;;;;;;;;;;4132687;28;20054;-80
2023/07/18 10:38:57;;;;;;;5.90;1.25;;;;;;;;;;4132821;28;20058;-80
2023/07/18 10:40:58;;;;;;;5.07;0.90;;;;;;;;;;4132186;28;20821;-80
2023/07/18 10:43:01;;;;;;;2.92;1.20;;;;;;;;;;4132681;28;20058;-80
2023/07/18 10:45:07;;;;;;;6.72;1.00;;;21.80;99.90;;;;;;4149673;28;20085;-80